createdAt,value
2023-03-06T00:02:11.344Z,6.42
2023-03-06T00:04:37.734Z,6.34
2023-03-06T00:07:04.120Z,6.34
2023-03-06T00:09:30.511Z,6.27
2023-03-06T00:11:56.893Z,6.30
2023-03-06T00:14:23.349Z,6.15
2023-03-06T00:16:49.754Z,6.22
2023-03-06T00:19:16.120Z,6.20
2023-03-06T00:21:42.534Z,6.29
2023-03-06T00:24:08.951Z,6.29
2023-03-06T00:26:35.312Z,6.18
2023-03-06T00:29:01.679Z,6.30
2023-03-06T00:31:28.236Z,6.06
2023-03-06T00:33:54.699Z,6.08
2023-03-06T00:36:21.108Z,6.15
2023-03-06T00:38:47.494Z,6.18
2023-03-06T00:41:13.891Z,6.13
2023-03-06T00:43:40.275Z,6.16
2023-03-06T00:46:06.796Z,6.23
2023-03-06T00:48:33.187Z,6.29
2023-03-06T00:50:59.609Z,6.27
2023-03-06T00:53:25.988Z,6.18
2023-03-06T00:55:52.375Z,6.19
2023-03-06T00:58:18.767Z,6.20
2023-03-06T01:00:45.199Z,6.18
2023-03-06T01:03:11.696Z,6.14
2023-03-06T01:05:38.058Z,6.15
2023-03-06T01:08:04.435Z,6.17
2023-03-06T01:10:30.800Z,6.28
2023-03-06T01:12:57.207Z,6.24
2023-03-06T01:15:23.569Z,6.09
2023-03-06T01:17:49.957Z,6.28
2023-03-06T01:20:16.381Z,6.36
2023-03-06T01:22:42.773Z,6.23
2023-03-06T01:25:09.168Z,6.11
2023-03-06T01:27:35.538Z,5.96
2023-03-06T01:30:01.922Z,5.92
2023-03-06T01:32:28.400Z,6.07
2023-03-06T01:34:57.331Z,5.99
2023-03-06T01:37:23.746Z,6.03
2023-03-06T01:39:50.187Z,5.90
2023-03-06T01:42:16.578Z,6.03
2023-03-06T01:44:43.046Z,6.02
2023-03-06T01:47:09.429Z,5.94
2023-03-06T01:49:38.608Z,5.85
2023-03-06T01:52:05.016Z,5.81
2023-03-06T01:54:31.416Z,5.84
2023-03-06T01:56:57.802Z,5.79
2023-03-06T01:59:24.164Z,5.77
2023-03-06T02:01:50.629Z,5.74
2023-03-06T02:04:17.025Z,5.71
2023-03-06T02:06:43.472Z,5.57
2023-03-06T02:09:09.882Z,5.57
2023-03-06T02:11:36.264Z,5.40
2023-03-06T02:14:02.654Z,5.20
2023-03-06T02:16:29.210Z,5.18
2023-03-06T02:18:55.589Z,5.14
2023-03-06T02:21:23.003Z,5.23
2023-03-06T02:23:49.393Z,5.20
2023-03-06T02:26:15.791Z,5.16
2023-03-06T02:28:42.159Z,5.09
2023-03-06T02:31:08.588Z,5.14
2023-03-06T02:33:35.015Z,5.33
2023-03-06T02:36:01.466Z,5.35
2023-03-06T02:38:27.886Z,5.42
2023-03-06T02:40:54.393Z,5.47
2023-03-06T02:43:20.816Z,5.47
2023-03-06T02:45:47.255Z,5.40
2023-03-06T02:48:14.721Z,5.31
2023-03-06T02:50:41.088Z,5.28
2023-03-06T02:53:07.550Z,5.34
2023-03-06T02:55:33.944Z,5.17
2023-03-06T02:58:00.623Z,5.13
2023-03-06T03:00:26.992Z,4.99
2023-03-06T03:02:53.344Z,5.00
2023-03-06T03:05:19.704Z,5.10
2023-03-06T03:07:46.091Z,5.08
2023-03-06T03:10:12.471Z,5.20
2023-03-06T03:12:38.846Z,5.30
2023-03-06T03:15:05.205Z,5.31
2023-03-06T03:17:31.574Z,5.25
2023-03-06T03:19:57.936Z,5.26
2023-03-06T03:22:24.356Z,5.14
2023-03-06T03:24:50.832Z,5.22
2023-03-06T03:27:17.441Z,5.30
2023-03-06T03:29:43.883Z,5.29
2023-03-06T03:32:10.355Z,5.31
2023-03-06T03:34:36.733Z,5.30
2023-03-06T03:37:03.117Z,5.20
2023-03-06T03:39:29.579Z,5.16
2023-03-06T03:41:56.002Z,5.13
2023-03-06T03:44:22.386Z,5.23
2023-03-06T03:46:48.828Z,5.27
2023-03-06T03:49:15.262Z,5.28
2023-03-06T03:51:41.655Z,5.45
2023-03-06T03:54:08.027Z,5.41
2023-03-06T03:56:34.454Z,5.36
2023-03-06T03:59:00.840Z,5.34
2023-03-06T04:01:27.227Z,5.37
2023-03-06T04:03:53.611Z,5.31
2023-03-06T04:06:20.110Z,5.12
2023-03-06T04:08:46.479Z,4.99
2023-03-06T04:11:12.892Z,4.76
2023-03-06T04:13:39.283Z,4.70
2023-03-06T04:16:05.856Z,4.69
2023-03-06T04:18:32.259Z,4.66
2023-03-06T04:20:58.677Z,4.70
2023-03-06T04:23:25.076Z,4.83
2023-03-06T04:25:51.475Z,4.91
2023-03-06T04:28:17.845Z,4.99
2023-03-06T04:30:44.229Z,5.04
2023-03-06T04:33:10.606Z,5.10
2023-03-06T04:35:37.014Z,5.18
2023-03-06T04:38:03.413Z,4.92
2023-03-06T04:40:29.798Z,4.98
2023-03-06T04:42:56.239Z,5.03
2023-03-06T04:45:22.763Z,5.01
2023-03-06T04:47:49.144Z,5.04
2023-03-06T04:50:15.520Z,5.07
2023-03-06T04:52:41.930Z,5.09
2023-03-06T04:55:09.308Z,5.03
2023-03-06T04:57:35.686Z,5.04
2023-03-06T05:00:02.049Z,5.06
2023-03-06T05:02:28.443Z,5.11
2023-03-06T05:04:54.873Z,5.13
2023-03-06T05:07:21.244Z,5.12
2023-03-06T05:09:47.634Z,5.03
2023-03-06T05:12:14.089Z,4.96
2023-03-06T05:14:40.460Z,5.00
2023-03-06T05:17:06.934Z,4.96
2023-03-06T05:19:33.298Z,5.02
2023-03-06T05:21:59.790Z,4.95
2023-03-06T05:24:26.178Z,5.06
2023-03-06T05:26:52.542Z,5.08
2023-03-06T05:29:18.949Z,5.14
2023-03-06T05:31:45.374Z,5.10
2023-03-06T05:34:11.767Z,4.95
2023-03-06T05:36:38.192Z,4.88
2023-03-06T05:39:04.553Z,4.67
2023-03-06T05:41:31.085Z,4.60
2023-03-06T05:43:57.554Z,4.54
2023-03-06T05:46:23.937Z,4.47
2023-03-06T05:48:50.320Z,4.64
2023-03-06T05:51:16.742Z,4.77
2023-03-06T05:53:43.210Z,4.80
2023-03-06T05:56:09.590Z,4.95
2023-03-06T05:58:36.881Z,4.63
2023-03-06T06:01:03.259Z,4.38
2023-03-06T06:03:29.657Z,4.46
2023-03-06T06:05:56.061Z,4.43
2023-03-06T06:08:22.434Z,4.57
2023-03-06T06:10:50.453Z,4.55
2023-03-06T06:13:18.644Z,4.43
2023-03-06T06:15:45.074Z,4.41
2023-03-06T06:18:11.457Z,4.42
2023-03-06T06:20:38.888Z,4.39
2023-03-06T06:23:05.262Z,4.43
2023-03-06T06:25:31.646Z,4.54
2023-03-06T06:27:58.032Z,4.57
2023-03-06T06:30:24.394Z,4.57
2023-03-06T06:32:50.757Z,4.67
2023-03-06T06:35:17.138Z,4.45
2023-03-06T06:37:43.550Z,4.53
2023-03-06T06:40:09.928Z,4.51
2023-03-06T06:42:39.924Z,4.63
2023-03-06T06:45:06.617Z,4.57
2023-03-06T06:47:33.312Z,4.70
2023-03-06T06:49:59.990Z,4.70
2023-03-06T06:52:26.405Z,4.82
2023-03-06T06:54:52.825Z,4.95
2023-03-06T06:57:19.278Z,5.07
2023-03-06T06:59:45.667Z,5.21
2023-03-06T07:02:12.137Z,5.24
2023-03-06T07:04:40.967Z,5.25
2023-03-06T07:07:10.724Z,5.33
2023-03-06T07:09:37.204Z,5.43
2023-03-06T07:12:03.576Z,5.61
2023-03-06T07:14:29.991Z,5.96
2023-03-06T07:16:56.365Z,5.78
2023-03-06T07:19:22.772Z,5.68
2023-03-06T07:21:49.180Z,5.89
2023-03-06T07:24:15.561Z,5.58
2023-03-06T07:26:41.941Z,5.56
2023-03-06T07:29:08.313Z,5.47
2023-03-06T07:31:34.741Z,5.37
2023-03-06T07:34:03.151Z,5.38
2023-03-06T07:36:31.163Z,5.44
2023-03-06T07:38:57.558Z,5.35
2023-03-06T07:41:23.960Z,5.32
2023-03-06T07:43:50.408Z,5.42
2023-03-06T07:46:16.887Z,5.55
2023-03-06T07:48:43.278Z,5.51
2023-03-06T07:51:09.645Z,5.48
2023-03-06T07:53:36.014Z,5.41
2023-03-06T07:56:02.397Z,5.18
2023-03-06T07:58:28.758Z,5.27
2023-03-06T08:00:55.171Z,5.33
2023-03-06T08:03:22.973Z,5.23
2023-03-06T08:05:49.381Z,5.27
2023-03-06T08:08:15.786Z,5.42
2023-03-06T08:10:42.173Z,5.47
2023-03-06T08:13:08.558Z,5.42
2023-03-06T08:15:34.935Z,5.23
2023-03-06T08:18:01.305Z,5.33
2023-03-06T08:20:27.717Z,5.53
2023-03-06T08:22:54.098Z,5.40
2023-03-06T08:25:20.477Z,5.53
2023-03-06T08:27:46.860Z,5.43
2023-03-06T08:30:13.264Z,5.70
2023-03-06T08:32:39.695Z,5.75
2023-03-06T08:35:06.172Z,5.85
2023-03-06T08:37:32.559Z,5.68
2023-03-06T08:39:58.954Z,5.84
2023-03-06T08:42:25.338Z,5.87
2023-03-06T08:44:51.736Z,5.62
2023-03-06T08:47:18.155Z,5.63
2023-03-06T08:49:44.543Z,5.65
2023-03-06T08:52:10.907Z,5.88
2023-03-06T08:54:37.297Z,5.61
2023-03-06T08:57:03.674Z,5.67
2023-03-06T08:59:30.073Z,5.92
2023-03-06T09:01:56.455Z,6.43
2023-03-06T09:04:22.892Z,6.77
2023-03-06T09:06:49.274Z,6.94
2023-03-06T09:09:15.663Z,6.72
2023-03-06T09:11:42.038Z,6.89
2023-03-06T09:14:08.417Z,6.50
2023-03-06T09:16:34.827Z,6.30
2023-03-06T09:19:01.248Z,6.55
2023-03-06T09:21:27.655Z,6.32
2023-03-06T09:23:54.085Z,6.52
2023-03-06T09:26:20.456Z,6.56
2023-03-06T09:28:46.845Z,6.75
2023-03-06T09:31:13.499Z,6.88
2023-03-06T09:33:39.946Z,6.14
2023-03-06T09:36:06.395Z,6.28
2023-03-06T09:38:32.787Z,6.39
2023-03-06T09:40:59.165Z,6.47
2023-03-06T09:43:25.532Z,6.68
2023-03-06T09:45:53.707Z,6.32
2023-03-06T09:48:20.066Z,6.86
2023-03-06T09:50:46.443Z,7.09
2023-03-06T09:53:14.483Z,6.80
2023-03-06T09:55:40.866Z,7.01
2023-03-06T09:58:07.625Z,7.14
2023-03-06T10:00:34.033Z,7.19
2023-03-06T10:03:00.525Z,7.16
2023-03-06T10:05:26.937Z,6.96
2023-03-06T10:10:36.372Z,7.22
2023-03-06T10:13:02.750Z,7.71
2023-03-06T10:15:29.198Z,7.83
2023-03-06T10:17:55.630Z,7.72
2023-03-06T10:20:22.151Z,7.30
2023-03-06T10:23:00.604Z,7.66
2023-03-06T10:25:29.631Z,8.13
2023-03-06T10:27:56.052Z,7.73
2023-03-06T10:30:22.560Z,7.24
2023-03-06T10:32:49.565Z,7.34
2023-03-06T10:35:16.125Z,7.98
2023-03-06T10:37:42.491Z,8.31
2023-03-06T10:40:08.926Z,8.29
2023-03-06T10:42:35.360Z,8.34
2023-03-06T10:45:01.774Z,7.93
2023-03-06T10:47:28.252Z,7.89
2023-03-06T10:49:54.641Z,8.01
2023-03-06T10:52:21.017Z,7.79
2023-03-06T10:54:47.443Z,8.03
2023-03-06T10:57:13.822Z,7.90
2023-03-06T10:59:40.231Z,8.27
2023-03-06T11:02:08.037Z,8.01
2023-03-06T11:04:34.491Z,7.88
2023-03-06T11:07:00.909Z,8.32
2023-03-06T11:09:27.275Z,8.58
2023-03-06T11:11:53.643Z,9.18
2023-03-06T11:14:20.041Z,9.27
2023-03-06T11:16:46.449Z,8.36
2023-03-06T11:19:12.876Z,8.03
2023-03-06T11:21:39.271Z,8.25
2023-03-06T11:24:05.640Z,8.28
2023-03-06T11:26:32.547Z,7.76
2023-03-06T11:28:59.111Z,8.01
2023-03-06T11:31:25.573Z,8.32
2023-03-06T11:33:52.017Z,8.47
2023-03-06T11:36:18.396Z,7.90
2023-03-06T11:38:44.773Z,7.83
2023-03-06T11:41:11.374Z,8.24
2023-03-06T11:43:37.802Z,7.67
2023-03-06T11:46:04.171Z,7.45
2023-03-06T11:48:30.609Z,7.76
2023-03-06T11:50:56.974Z,7.57
2023-03-06T11:53:23.333Z,8.91
2023-03-06T11:55:52.553Z,9.04
2023-03-06T11:58:18.921Z,8.66
2023-03-06T12:00:45.334Z,9.72
2023-03-06T12:03:11.733Z,9.55
2023-03-06T12:05:38.185Z,9.24
2023-03-06T12:08:04.649Z,10.37
2023-03-06T12:10:31.127Z,10.32
2023-03-06T12:12:57.503Z,10.43
2023-03-06T12:15:23.903Z,9.97
2023-03-06T12:17:50.306Z,10.10
2023-03-06T12:20:16.665Z,10.54
2023-03-06T12:22:44.359Z,11.37
2023-03-06T12:25:12.778Z,12.22
2023-03-06T12:27:39.172Z,9.87
2023-03-06T12:30:05.574Z,10.87
2023-03-06T12:32:31.997Z,10.74
2023-03-06T12:34:58.405Z,11.23
2023-03-06T12:37:24.797Z,10.74
2023-03-06T12:39:51.171Z,10.86
2023-03-06T12:42:23.108Z,10.78
2023-03-06T12:44:50.045Z,11.40
2023-03-06T12:47:16.442Z,10.79
2023-03-06T12:49:42.874Z,10.52
2023-03-06T12:52:09.814Z,10.16
2023-03-06T12:54:36.266Z,10.72
2023-03-06T12:57:02.734Z,10.94
2023-03-06T12:59:29.154Z,11.39
2023-03-06T13:01:55.575Z,9.79
2023-03-06T13:04:22.039Z,9.31
2023-03-06T13:06:50.970Z,9.89
2023-03-06T13:09:17.678Z,10.74
2023-03-06T13:11:44.097Z,11.57
2023-03-06T13:14:10.474Z,10.89
2023-03-06T13:16:36.928Z,9.82
2023-03-06T13:19:03.362Z,9.38
2023-03-06T13:21:29.740Z,9.79
2023-03-06T13:23:56.102Z,10.89
2023-03-06T13:26:22.501Z,9.45
2023-03-06T13:28:48.898Z,9.60
2023-03-06T13:31:26.352Z,9.36
2023-03-06T13:33:53.760Z,10.13
2023-03-06T13:36:20.272Z,10.49
2023-03-06T13:38:46.642Z,10.44
2023-03-06T13:41:13.007Z,10.50
2023-03-06T13:43:39.387Z,10.10
2023-03-06T13:46:05.807Z,9.98
2023-03-06T13:48:47.656Z,10.04
2023-03-06T13:51:14.130Z,10.58
2023-03-06T13:53:40.569Z,10.36
2023-03-06T13:56:07.100Z,10.11
2023-03-06T13:58:33.476Z,11.16
2023-03-06T14:00:59.887Z,11.99
2023-03-06T14:03:26.318Z,11.76
2023-03-06T14:05:52.714Z,11.11
2023-03-06T14:08:19.113Z,10.41
2023-03-06T14:10:45.492Z,10.74
2023-03-06T14:13:13.314Z,10.58
2023-03-06T14:26:58.708Z,11.20
2023-03-06T14:29:27.580Z,12.19
2023-03-06T14:32:01.312Z,12.87
2023-03-06T14:34:27.757Z,12.78
2023-03-06T14:36:54.121Z,13.47
2023-03-06T14:39:20.521Z,12.78
2023-03-06T14:41:46.911Z,13.66
2023-03-06T14:44:13.274Z,13.87
2023-03-06T14:46:39.658Z,12.64
2023-03-06T14:49:06.044Z,12.81
2023-03-06T14:51:32.433Z,12.81
2023-03-06T14:53:58.907Z,13.25
2023-03-06T14:56:25.290Z,13.34
2023-03-06T14:58:51.651Z,13.42
2023-03-06T15:01:18.147Z,13.78
2023-03-06T15:03:44.658Z,13.13
2023-03-06T15:06:11.054Z,13.39
2023-03-06T15:08:37.434Z,14.10
2023-03-06T15:11:03.867Z,13.41
2023-03-06T15:13:30.254Z,12.65
2023-03-06T15:15:56.656Z,12.28
2023-03-06T15:18:23.109Z,13.29
2023-03-06T15:20:49.474Z,12.11
2023-03-06T15:23:15.864Z,11.95
2023-03-06T15:25:42.323Z,12.24
2023-03-06T15:28:08.709Z,11.12
2023-03-06T15:30:35.088Z,11.66
2023-03-06T15:33:01.479Z,11.66
2023-03-06T15:35:27.885Z,13.11
2023-03-06T15:37:54.350Z,13.64
2023-03-06T15:40:20.786Z,12.70
2023-03-06T15:42:47.201Z,13.84
2023-03-06T15:45:13.579Z,14.54
2023-03-06T15:47:39.964Z,14.56
2023-03-06T15:50:06.349Z,15.78
2023-03-06T15:52:32.732Z,15.95
2023-03-06T15:54:59.148Z,14.86
2023-03-06T15:57:25.522Z,14.98
2023-03-06T15:59:51.908Z,14.36
2023-03-06T16:02:18.300Z,15.15
2023-03-06T16:04:44.692Z,13.95
2023-03-06T16:07:11.065Z,15.75
2023-03-06T16:09:37.466Z,15.88
2023-03-06T16:12:03.862Z,15.46
2023-03-06T16:14:30.260Z,15.33
2023-03-06T16:16:56.776Z,16.85
2023-03-06T16:19:26.264Z,15.39
2023-03-06T16:21:53.480Z,16.05
2023-03-06T16:24:19.983Z,15.65
2023-03-06T16:26:46.354Z,15.52
2023-03-06T16:29:12.747Z,14.96
2023-03-06T16:31:39.099Z,14.00
2023-03-06T16:34:06.944Z,13.01
2023-03-06T16:36:33.353Z,12.93
2023-03-06T16:38:59.732Z,12.86
2023-03-06T16:41:26.197Z,13.26
2023-03-06T16:43:52.583Z,12.26
2023-03-06T16:46:19.022Z,11.83
2023-03-06T16:48:45.453Z,11.89
2023-03-06T16:51:11.834Z,11.53
2023-03-06T16:53:38.223Z,12.14
2023-03-06T16:56:04.682Z,12.07
2023-03-06T16:58:31.106Z,11.88
2023-03-06T17:00:57.502Z,12.07
2023-03-06T17:03:23.916Z,12.44
2023-03-06T17:05:50.298Z,12.28
2023-03-06T17:08:16.677Z,11.83
2023-03-06T17:10:43.084Z,12.04
2023-03-06T17:13:09.461Z,10.67
2023-03-06T17:15:35.851Z,10.74
2023-03-06T17:18:02.307Z,10.51
2023-03-06T17:20:28.734Z,10.33
2023-03-06T17:22:55.171Z,9.92
2023-03-06T17:25:21.606Z,9.75
2023-03-06T17:27:47.986Z,9.45
2023-03-06T17:30:14.378Z,9.52
2023-03-06T17:32:40.899Z,9.59
2023-03-06T17:35:07.347Z,9.57
2023-03-06T17:37:33.879Z,9.57
2023-03-06T17:40:00.379Z,9.66
2023-03-06T17:42:26.763Z,9.76
2023-03-06T17:44:53.171Z,10.40
2023-03-06T17:47:20.631Z,10.69
2023-03-06T17:49:47.047Z,10.71
2023-03-06T17:52:13.417Z,10.51
2023-03-06T17:54:39.837Z,10.33
2023-03-06T17:57:06.206Z,10.12
2023-03-06T17:59:32.574Z,9.56
2023-03-06T18:01:59.026Z,9.61
2023-03-06T18:04:25.457Z,9.62
2023-03-06T18:06:51.831Z,9.44
2023-03-06T18:09:18.261Z,9.24
2023-03-06T18:11:44.683Z,9.24
2023-03-06T18:14:11.080Z,9.30
2023-03-06T18:16:37.518Z,9.08
2023-03-06T18:19:03.924Z,8.92
2023-03-06T18:21:30.306Z,8.92
2023-03-06T18:23:56.716Z,8.99
2023-03-06T18:26:23.181Z,8.97
2023-03-06T18:28:49.552Z,8.89
2023-03-06T18:31:15.964Z,8.65
2023-03-06T18:33:42.385Z,8.71
2023-03-06T18:36:08.756Z,8.79
2023-03-06T18:38:35.134Z,8.83
2023-03-06T18:41:01.533Z,8.98
2023-03-06T18:43:28.077Z,8.88
2023-03-06T18:45:54.484Z,8.79
2023-03-06T18:48:20.886Z,8.71
2023-03-06T18:50:47.246Z,8.57
2023-03-06T18:53:13.634Z,8.45
2023-03-06T18:55:40.116Z,8.37
2023-03-06T18:58:06.509Z,8.34
2023-03-06T19:00:32.886Z,8.14
2023-03-06T19:02:59.374Z,8.15
2023-03-06T19:05:25.865Z,8.27
2023-03-06T19:07:52.261Z,8.25
2023-03-06T19:10:18.669Z,8.20
2023-03-06T19:12:45.127Z,8.22
2023-03-06T19:15:11.532Z,8.25
2023-03-06T19:17:37.970Z,8.30
2023-03-06T19:20:04.359Z,8.29
2023-03-06T19:22:31.806Z,8.01
2023-03-06T19:24:58.235Z,8.00
2023-03-06T19:27:24.611Z,7.79
2023-03-06T19:29:51.036Z,7.68
2023-03-06T19:32:17.618Z,7.24
2023-03-06T19:34:44.082Z,7.02
2023-03-06T19:37:10.468Z,6.96
2023-03-06T19:39:36.856Z,6.85
2023-03-06T19:42:03.289Z,6.68
2023-03-06T19:44:29.707Z,6.68
2023-03-06T19:46:56.205Z,6.62
2023-03-06T19:49:22.586Z,6.54
2023-03-06T19:51:49.009Z,6.34
2023-03-06T19:54:15.718Z,6.52
2023-03-06T19:56:43.124Z,6.51
2023-03-06T19:59:09.527Z,6.50
2023-03-06T20:01:38.074Z,6.55
2023-03-06T20:04:04.528Z,6.69
2023-03-06T20:06:30.900Z,6.74
2023-03-06T20:08:57.279Z,6.85
2023-03-06T20:11:25.540Z,6.83
2023-03-06T20:13:51.910Z,6.80
2023-03-06T20:16:18.284Z,6.67
2023-03-06T20:18:47.530Z,6.62
2023-03-06T20:21:13.983Z,6.68
2023-03-06T20:23:40.396Z,6.51
2023-03-06T20:26:06.874Z,6.44
2023-03-06T20:28:33.337Z,6.37
2023-03-06T20:30:59.766Z,6.23
2023-03-06T20:33:26.266Z,6.31
2023-03-06T20:35:52.874Z,6.24
2023-03-06T20:38:19.268Z,6.32
2023-03-06T20:40:45.684Z,6.31
2023-03-06T20:43:12.213Z,6.33
2023-03-06T20:45:38.630Z,6.38
2023-03-06T20:48:05.063Z,6.58
2023-03-06T20:50:33.373Z,6.65
2023-03-06T20:52:59.863Z,6.81
2023-03-06T20:55:26.346Z,6.76
2023-03-06T20:57:52.780Z,6.82
2023-03-06T21:00:19.162Z,6.72
2023-03-06T21:02:45.634Z,6.86
2023-03-06T21:05:12.075Z,6.87
2023-03-06T21:07:38.503Z,6.83
2023-03-06T21:10:04.889Z,6.80
2023-03-06T21:12:31.301Z,6.89
2023-03-06T21:14:57.715Z,6.84
2023-03-06T21:17:24.102Z,6.84
2023-03-06T21:19:50.508Z,6.82
2023-03-06T21:22:16.922Z,6.92
2023-03-06T21:24:43.354Z,6.86
2023-03-06T21:27:09.775Z,6.82
2023-03-06T21:29:36.159Z,6.64
2023-03-06T21:32:02.607Z,6.66
2023-03-06T21:34:29.032Z,6.59
2023-03-06T21:36:55.479Z,6.61
2023-03-06T21:39:21.855Z,6.51
2023-03-06T21:41:48.277Z,6.48
2023-03-06T21:44:14.674Z,6.47
2023-03-06T21:46:41.077Z,6.53
2023-03-06T21:49:07.475Z,6.25
2023-03-06T21:51:33.958Z,6.15
2023-03-06T21:54:00.354Z,6.25
2023-03-06T21:56:29.040Z,6.14
2023-03-06T21:58:55.457Z,5.97
2023-03-06T22:01:21.933Z,5.94
2023-03-06T22:03:48.418Z,5.74
2023-03-06T22:06:14.862Z,5.57
2023-03-06T22:08:41.227Z,5.54
2023-03-06T22:11:07.620Z,5.58
2023-03-06T22:13:34.021Z,5.65
2023-03-06T22:16:00.381Z,5.73
2023-03-06T22:18:26.758Z,5.92
2023-03-06T22:20:53.164Z,5.86
2023-03-06T22:23:19.567Z,5.71
2023-03-06T22:25:45.960Z,5.55
2023-03-06T22:28:12.333Z,5.55
2023-03-06T22:30:38.736Z,5.60
2023-03-06T22:33:05.213Z,5.40
2023-03-06T22:35:31.596Z,5.36
2023-03-06T22:37:58.074Z,5.39
2023-03-06T22:40:24.466Z,5.43
2023-03-06T22:42:50.861Z,5.29
2023-03-06T22:45:17.253Z,5.21
2023-03-06T22:47:43.676Z,5.31
2023-03-06T22:50:10.054Z,5.35
2023-03-06T22:52:36.454Z,5.50
2023-03-06T22:55:02.851Z,5.42
2023-03-06T22:57:29.238Z,5.71
2023-03-06T22:59:55.610Z,5.56
2023-03-06T23:02:22.028Z,5.77
2023-03-06T23:04:48.421Z,5.78
2023-03-06T23:07:14.797Z,5.62
2023-03-06T23:09:41.182Z,5.38
2023-03-06T23:12:07.563Z,5.19
2023-03-06T23:14:33.984Z,5.32
2023-03-06T23:17:00.412Z,5.38
2023-03-06T23:19:26.807Z,5.59
2023-03-06T23:21:53.199Z,5.41
2023-03-06T23:24:19.657Z,5.40
2023-03-06T23:26:46.042Z,5.40
2023-03-06T23:29:12.426Z,5.28
2023-03-06T23:31:38.827Z,5.22
2023-03-06T23:34:05.204Z,5.37
2023-03-06T23:36:31.618Z,5.56
2023-03-06T23:38:57.987Z,5.57
2023-03-06T23:41:24.376Z,5.57
2023-03-06T23:43:51.017Z,5.68
2023-03-06T23:46:18.057Z,5.79
2023-03-06T23:48:44.768Z,5.74
2023-03-06T23:51:11.149Z,5.74
2023-03-06T23:53:37.539Z,5.73
2023-03-06T23:56:05.984Z,5.77
2023-03-06T23:58:32.389Z,5.65
